Cordell Hull Observed Data For Previous 48 Hours

Caption
Day and Hour Reservoir Elevation (behind dam)* Tailwater Elevation (below dam)* Average Hourly Discharge*
11/17/2017 1 AM CST 500.78 449.28 0
11/17/2017 2 AM CST 500.85 448.55 0
11/17/2017 3 AM CST 500.91 447.71 0
11/17/2017 4 AM CST 501.06 446.86 0
11/17/2017 5 AM CST 501.13 446.53 0
11/17/2017 6 AM CST 501.01 447.61 0
11/17/2017 7 AM CST 501.01 447.61 8,020
11/17/2017 8 AM CST 500.89 451.39 17,180
11/17/2017 9 AM CST 500.89 451.39 17,500
11/17/2017 10 AM CST 500.98 450.28 17,700
11/17/2017 11 AM CST 501.13 448.13 8,510
11/17/2017 12 PM CST 501.18 447.38 0
11/17/2017 1 PM CST 501.18 447.38 0
11/17/2017 2 PM CST 501.28 446.58 0
11/17/2017 3 PM CST 501.41 446.31 0
11/17/2017 4 PM CST 501.41 446.31 0
11/17/2017 5 PM CST 501.11 450.31 7,940
11/17/2017 6 PM CST 500.88 453.48 16,980
11/17/2017 7 PM CST 500.88 453.48 27,660
11/17/2017 8 PM CST 500.78 454.28 28,200
11/17/2017 9 PM CST 500.68 454.98 28,725
11/17/2017 10 PM CST 500.86 451.36 18,560
11/17/2017 11 PM CST 501.15 449.45 8,750
11/18/2017 12 AM CST 501.09 448.49 0
11/18/2017 1 AM CST 501.09 448.49 0
11/18/2017 2 AM CST 501.07 447.57 0
11/18/2017 3 AM CST 501.15 447.15 0
11/18/2017 4 AM CST 501.32 446.22 0
11/18/2017 5 AM CST 501.38 445.98 0
11/18/2017 6 AM CST 501.28 447.18 7,890
11/18/2017 7 AM CST 501.28 447.18 7,890
11/18/2017 8 AM CST 501.40 447.80 7,980
11/18/2017 9 AM CST 501.40 447.90 8,000
11/18/2017 10 AM CST 501.40 447.90 8,000
11/18/2017 11 AM CST 501.45 447.95 8,000
11/18/2017 12 PM CST 501.46 447.86 7,980
11/18/2017 1 PM CST 501.46 447.86 7,980
11/18/2017 2 PM CST 501.65 446.25 0
11/18/2017 3 PM CST 501.70 445.60 0
11/18/2017 4 PM CST 501.81 444.81 0
11/18/2017 5 PM CST 501.90 444.60 0
11/18/2017 6 PM CST 501.90 444.60 0
11/18/2017 7 PM CST 501.53 449.13 16,380
11/18/2017 8 PM CST 501.59 449.89 16,620
11/18/2017 9 PM CST 501.64 450.54 16,860
11/18/2017 10 PM CST 501.67 449.07 8,160
11/18/2017 11 PM CST 501.96 447.46 0
11/19/2017 12 AM CST 501.96 447.46 0
11/19/2017 1 AM CST 501.96 447.46 0

Elevations are in feet above sea level. Discharges are in cubic feet per second and are reported at the end of the hour.